Terminal Aerodrome Forecast
Issued by NWS Milwaukee/Sullivan, WI

Home | Current Version | Previous Version | Text Only | Print | Product List | Glossary On
Versions: 1 2 3 4 5 6 7 8 9 10 11 12 13 14 15 16 17 18 19 20 21 22 23 24 25 26 27 28 29 30 31 32 33 34 35 36 37 38 39
484
FTUS43 KMKX 261129
TAFMKE
TAF
KMKE 261129Z 2612/2718 17009KT P6SM SCT080 BKN200
     FM261500 17011KT 6SM SHRA BKN045 BKN080
      TEMPO 2615/2617 5SM -TSRA BKN035CB
     FM261900 20010G22KT P6SM VCSH SCT030 BKN050
     FM270000 20007KT 4SM SHRA BR VCTS OVC020CB
     FM270200 16006KT 3SM SHRA BR VCTS OVC015CB
     FM270500 22005KT 6SM SHRA OVC008
     FM270600 24005KT P6SM SHRA OVC010
     FM270900 26007KT P6SM SHRA OVC003
     FM271500 27010KT 4SM -RA OVC010=

USA.gov is the U.S. government's official web portal to all federal, state and local government web resources and services.